createdAt,value
2023-04-17T00:01:40.659Z,98.20
2023-04-17T00:04:11.392Z,98.30
2023-04-17T00:06:38.902Z,98.40
2023-04-17T00:09:06.178Z,98.50
2023-04-17T00:11:32.911Z,99.40
2023-04-17T00:13:59.614Z,99.60
2023-04-17T00:16:27.235Z,99.70
2023-04-17T00:18:55.069Z,99.80
2023-04-17T00:21:22.091Z,99.80
2023-04-17T00:23:49.015Z,99.80
2023-04-17T00:26:16.503Z,99.90
2023-04-17T00:28:43.342Z,99.90
2023-04-17T00:31:10.096Z,99.90
2023-04-17T00:33:36.866Z,99.90
2023-04-17T00:36:03.725Z,99.90
2023-04-17T00:38:30.839Z,99.90
2023-04-17T00:40:57.608Z,99.90
2023-04-17T00:43:24.312Z,99.90
2023-04-17T00:45:51.914Z,99.90
2023-04-17T00:48:19.540Z,99.90
2023-04-17T00:50:46.379Z,99.90
2023-04-17T00:53:14.427Z,99.90
2023-04-17T00:55:43.046Z,99.90
2023-04-17T00:58:11.491Z,99.90
2023-04-17T01:00:38.280Z,99.90
2023-04-17T01:03:05.724Z,99.90
2023-04-17T01:05:35.434Z,99.90
2023-04-17T01:08:02.257Z,99.90
2023-04-17T01:10:28.915Z,99.90
2023-04-17T01:13:07.045Z,99.90
2023-04-17T01:15:34.246Z,99.90
2023-04-17T01:18:01.766Z,99.90
2023-04-17T01:20:31.836Z,99.90
2023-04-17T01:22:59.689Z,99.90
2023-04-17T01:25:27.643Z,99.90
2023-04-17T01:27:54.864Z,99.90
2023-04-17T01:30:21.660Z,99.90
2023-04-17T01:32:48.579Z,99.90
2023-04-17T01:35:15.392Z,99.90
2023-04-17T01:37:42.093Z,99.90
2023-04-17T01:40:09.751Z,99.90
2023-04-17T01:42:36.569Z,99.90
2023-04-17T01:45:04.624Z,99.90
2023-04-17T01:47:31.368Z,99.70
2023-04-17T01:49:58.138Z,99.20
2023-04-17T01:52:24.860Z,98.90
2023-04-17T01:54:51.578Z,98.70
2023-04-17T01:57:18.396Z,98.70
2023-04-17T01:59:45.094Z,98.50
2023-04-17T02:02:12.021Z,98.50
2023-04-17T02:04:38.963Z,98.10
2023-04-17T02:07:05.677Z,98.00
2023-04-17T02:09:32.438Z,97.60
2023-04-17T02:11:59.164Z,97.80
2023-04-17T02:14:26.057Z,97.70
2023-04-17T02:16:53.795Z,98.00
2023-04-17T02:19:21.490Z,97.90
2023-04-17T02:21:48.301Z,97.90
2023-04-17T02:24:15.036Z,97.40
2023-04-17T02:26:41.852Z,97.50
2023-04-17T02:29:08.768Z,97.50
2023-04-17T02:31:35.539Z,97.50
2023-04-17T02:34:02.539Z,97.40
2023-04-17T02:36:29.239Z,97.20
2023-04-17T02:38:56.357Z,97.30
2023-04-17T02:41:23.171Z,96.90
2023-04-17T02:43:50.091Z,96.50
2023-04-17T02:46:16.858Z,96.30
2023-04-17T02:48:43.660Z,96.20
2023-04-17T02:51:10.662Z,95.90
2023-04-17T02:53:37.410Z,96.00
2023-04-17T02:56:04.449Z,96.30
2023-04-17T02:58:31.148Z,96.40
2023-04-17T03:01:02.731Z,96.60
2023-04-17T03:03:34.936Z,97.00
2023-04-17T03:06:02.527Z,97.10
2023-04-17T03:08:32.516Z,97.00
2023-04-17T03:10:59.794Z,97.00
2023-04-17T03:13:26.514Z,97.20
2023-04-17T03:15:53.223Z,97.30
2023-04-17T03:18:20.009Z,97.10
2023-04-17T03:20:46.722Z,97.10
2023-04-17T03:23:13.436Z,97.20
2023-04-17T03:25:40.382Z,97.50
2023-04-17T03:28:07.101Z,97.50
2023-04-17T03:30:33.782Z,97.80
2023-04-17T03:33:00.588Z,98.50
2023-04-17T03:35:27.319Z,98.90
2023-04-17T03:37:54.159Z,99.00
2023-04-17T03:40:20.844Z,99.20
2023-04-17T03:42:47.543Z,99.40
2023-04-17T03:45:14.855Z,99.80
2023-04-17T03:47:41.883Z,99.90
2023-04-17T03:50:09.040Z,99.90
2023-04-17T03:52:35.741Z,99.90
2023-04-17T03:55:02.500Z,99.80
2023-04-17T03:57:29.196Z,99.90
2023-04-17T03:59:55.993Z,99.90
2023-04-17T04:02:23.047Z,99.80
2023-04-17T04:04:50.671Z,99.10
2023-04-17T04:07:17.602Z,98.90
2023-04-17T04:09:44.341Z,98.70
2023-04-17T04:12:11.059Z,98.40
2023-04-17T04:14:39.757Z,98.30
2023-04-17T04:17:07.927Z,98.00
2023-04-17T04:19:34.629Z,98.20
2023-04-17T04:22:01.588Z,98.10
2023-04-17T04:24:28.591Z,98.20
2023-04-17T04:26:55.451Z,98.30
2023-04-17T04:29:25.602Z,98.40
2023-04-17T04:31:52.529Z,98.20
2023-04-17T04:34:19.414Z,97.90
2023-04-17T04:36:50.049Z,97.70
2023-04-17T04:39:20.884Z,97.80
2023-04-17T04:41:51.412Z,97.60
2023-04-17T04:44:19.120Z,97.30
2023-04-17T04:46:46.268Z,97.00
2023-04-17T04:49:13.425Z,96.10
2023-04-17T04:51:40.459Z,95.50
2023-04-17T04:54:09.410Z,95.70
2023-04-17T04:56:36.095Z,95.70
2023-04-17T04:59:02.847Z,95.60
2023-04-17T05:01:29.888Z,95.70
2023-04-17T05:03:57.129Z,95.80
2023-04-17T05:06:24.055Z,95.90
2023-04-17T05:08:52.064Z,96.30
2023-04-17T05:11:19.009Z,96.60
2023-04-17T05:13:45.920Z,96.90
2023-04-17T05:16:12.658Z,97.30
2023-04-17T05:18:39.483Z,97.50
2023-04-17T05:21:06.247Z,97.60
2023-04-17T05:23:33.116Z,97.60
2023-04-17T05:25:59.851Z,97.90
2023-04-17T05:28:29.040Z,97.90
2023-04-17T05:30:58.029Z,98.00
2023-04-17T05:33:24.851Z,98.20
2023-04-17T05:35:53.882Z,98.30
2023-04-17T05:38:22.250Z,98.20
2023-04-17T05:40:48.928Z,98.00
2023-04-17T05:43:15.730Z,97.90
2023-04-17T05:45:42.584Z,97.60
2023-04-17T05:48:09.711Z,97.70
2023-04-17T05:50:37.713Z,97.40
2023-04-17T05:53:04.881Z,97.40
2023-04-17T05:55:31.557Z,97.20
2023-04-17T05:57:58.509Z,97.60
2023-04-17T06:00:25.570Z,97.40
2023-04-17T06:02:52.466Z,97.00
2023-04-17T06:05:20.748Z,97.00
2023-04-17T06:07:47.504Z,97.00
2023-04-17T06:10:14.227Z,97.30
2023-04-17T06:12:41.164Z,97.50
2023-04-17T06:15:11.188Z,97.20
2023-04-17T06:17:39.009Z,97.10
2023-04-17T06:20:11.297Z,96.90
2023-04-17T06:22:39.237Z,96.70
2023-04-17T06:25:09.356Z,96.80
2023-04-17T06:27:36.976Z,96.30
2023-04-17T06:30:05.621Z,95.80
2023-04-17T06:32:32.411Z,95.00
2023-04-17T06:34:59.863Z,93.20
2023-04-17T06:37:26.668Z,92.70
2023-04-17T06:39:53.428Z,91.40
2023-04-17T06:42:20.653Z,91.10
2023-04-17T06:44:50.353Z,91.20
2023-04-17T06:47:17.197Z,91.20
2023-04-17T06:49:43.913Z,90.60
2023-04-17T06:52:10.872Z,89.10
2023-04-17T06:54:38.399Z,88.20
2023-04-17T06:57:06.749Z,86.00
2023-04-17T06:59:34.230Z,81.20
2023-04-17T07:02:02.286Z,80.40
2023-04-17T07:04:31.204Z,81.20
2023-04-17T07:06:58.051Z,82.00
2023-04-17T07:09:25.588Z,80.50
2023-04-17T07:11:52.371Z,79.90
2023-04-17T07:14:19.130Z,81.20
2023-04-17T07:16:46.106Z,81.90
2023-04-17T07:19:13.452Z,83.10
2023-04-17T07:21:40.416Z,85.10
2023-04-17T07:24:07.365Z,87.40
2023-04-17T07:26:34.110Z,88.70
2023-04-17T07:29:00.954Z,88.80
2023-04-17T07:31:28.582Z,87.80
2023-04-17T07:33:55.957Z,86.80
2023-04-17T07:36:22.636Z,85.40
2023-04-17T07:38:49.542Z,84.70
2023-04-17T07:41:16.334Z,84.10
2023-04-17T07:43:43.124Z,84.20
2023-04-17T07:46:09.862Z,83.50
2023-04-17T07:48:36.569Z,83.20
2023-04-17T07:51:03.288Z,83.80
2023-04-17T07:53:30.251Z,84.60
2023-04-17T07:55:58.382Z,84.90
2023-04-17T07:58:27.036Z,85.50
2023-04-17T08:00:53.888Z,85.10
2023-04-17T08:03:24.525Z,84.20
2023-04-17T08:05:54.438Z,82.10
2023-04-17T08:08:22.984Z,80.90
2023-04-17T08:10:50.664Z,81.30
2023-04-17T08:13:17.401Z,78.90
2023-04-17T08:15:45.584Z,70.70
2023-04-17T08:18:12.517Z,68.70
2023-04-17T08:20:39.993Z,66.10
2023-04-17T08:23:07.244Z,64.20
2023-04-17T08:25:34.041Z,63.10
2023-04-17T08:28:01.021Z,62.80
2023-04-17T08:30:27.734Z,67.30
2023-04-17T08:32:55.673Z,64.80
2023-04-17T08:35:22.871Z,62.30
2023-04-17T08:37:49.703Z,60.50
2023-04-17T08:40:18.737Z,56.40
2023-04-17T08:42:48.045Z,57.20
2023-04-17T08:45:15.027Z,57.20
2023-04-17T08:47:43.412Z,57.50
2023-04-17T08:50:16.421Z,56.80
2023-04-17T08:52:48.628Z,55.60
2023-04-17T08:55:22.372Z,53.60
2023-04-17T08:58:01.221Z,53.20
2023-04-17T09:00:33.405Z,53.30
2023-04-17T09:03:02.791Z,55.20
2023-04-17T09:05:33.249Z,54.20
2023-04-17T09:08:26.239Z,54.00
2023-04-17T09:10:54.848Z,53.30
2023-04-17T09:13:24.995Z,55.40
2023-04-17T09:16:06.758Z,53.80
2023-04-17T09:18:35.110Z,54.90
2023-04-17T09:21:03.393Z,55.00
2023-04-17T09:23:45.878Z,53.40
2023-04-17T09:26:18.430Z,52.30
2023-04-17T09:29:04.851Z,50.60
2023-04-17T09:31:34.335Z,51.20
2023-04-17T09:34:07.564Z,49.80
2023-04-17T09:36:39.616Z,49.80
2023-04-17T09:39:25.813Z,52.20
2023-04-17T09:42:10.465Z,48.70
2023-04-17T09:44:39.102Z,50.10
2023-04-17T09:47:07.925Z,48.60
2023-04-17T09:49:52.995Z,49.90
2023-04-17T09:52:23.634Z,50.90
2023-04-17T09:54:53.777Z,49.40
2023-04-17T09:57:22.082Z,47.00
2023-04-17T09:59:52.428Z,49.40
2023-04-17T10:02:21.277Z,47.40
2023-04-17T10:04:48.439Z,47.30
2023-04-17T10:07:16.483Z,47.50
2023-04-17T10:09:45.799Z,48.40
2023-04-17T10:12:16.364Z,47.50
2023-04-17T10:14:48.461Z,47.30
2023-04-17T10:17:32.315Z,49.40
2023-04-17T10:20:17.803Z,50.10
2023-04-17T10:22:45.258Z,51.40
2023-04-17T10:25:12.649Z,49.30
2023-04-17T10:27:42.576Z,49.30
2023-04-17T10:30:12.879Z,51.50
2023-04-17T10:32:45.521Z,50.50
2023-04-17T10:35:18.010Z,49.50
2023-04-17T10:37:50.722Z,46.10
2023-04-17T10:40:25.976Z,47.70
2023-04-17T10:43:11.300Z,45.50
2023-04-17T10:45:57.821Z,46.00
2023-04-17T10:48:39.231Z,42.20
2023-04-17T10:51:21.437Z,44.00
2023-04-17T10:53:59.232Z,44.80
2023-04-17T10:56:40.005Z,44.60
2023-04-17T10:59:10.555Z,45.30
2023-04-17T11:01:37.752Z,44.60
2023-04-17T11:04:06.210Z,41.80
2023-04-17T11:06:37.399Z,40.30
2023-04-17T11:09:08.595Z,40.60
2023-04-17T11:11:44.277Z,41.50
2023-04-17T11:14:19.948Z,40.60
2023-04-17T11:16:48.312Z,39.20
2023-04-17T11:19:20.102Z,39.40
2023-04-17T11:21:48.792Z,39.60
2023-04-17T11:24:26.775Z,39.80
2023-04-17T11:26:54.532Z,39.70
2023-04-17T11:29:22.863Z,40.90
2023-04-17T11:31:52.362Z,41.00
2023-04-17T11:34:19.648Z,41.10
2023-04-17T11:37:04.670Z,40.50
2023-04-17T11:39:33.426Z,41.10
2023-04-17T11:42:03.346Z,41.00
2023-04-17T11:44:30.241Z,41.70
2023-04-17T11:47:00.782Z,42.80
2023-04-17T11:49:39.006Z,42.50
2023-04-17T11:52:06.401Z,42.90
2023-04-17T11:54:38.189Z,43.80
2023-04-17T11:57:06.934Z,44.30
2023-04-17T11:59:36.871Z,45.50
2023-04-17T12:02:07.588Z,46.50
2023-04-17T12:04:36.605Z,46.60
2023-04-17T12:07:05.025Z,47.10
2023-04-17T12:09:32.942Z,46.20
2023-04-17T12:12:07.646Z,44.00
2023-04-17T12:14:34.915Z,45.80
2023-04-17T12:17:01.656Z,50.20
2023-04-17T12:19:29.844Z,54.50
2023-04-17T12:21:57.270Z,55.30
2023-04-17T12:24:25.062Z,55.50
2023-04-17T12:26:52.512Z,56.60
2023-04-17T12:29:26.583Z,58.70
2023-04-17T12:31:59.564Z,60.40
2023-04-17T12:34:27.774Z,58.90
2023-04-17T12:36:54.774Z,58.50
2023-04-17T12:39:21.476Z,59.90
2023-04-17T12:41:48.184Z,59.60
2023-04-17T12:44:15.079Z,61.50
2023-04-17T12:46:42.113Z,62.00
2023-04-17T12:49:09.115Z,62.40
2023-04-17T12:51:37.951Z,63.70
2023-04-17T12:54:05.460Z,61.60
2023-04-17T12:56:32.497Z,62.00
2023-04-17T12:59:02.042Z,59.30
2023-04-17T13:01:29.864Z,60.20
2023-04-17T13:03:56.996Z,57.50
2023-04-17T13:06:24.216Z,56.90
2023-04-17T13:08:51.151Z,55.40
2023-04-17T13:11:18.011Z,54.40
2023-04-17T13:13:45.058Z,54.10
2023-04-17T13:16:11.877Z,52.90
2023-04-17T13:18:38.722Z,52.40
2023-04-17T13:21:05.536Z,53.10
2023-04-17T13:23:32.385Z,56.20
2023-04-17T13:25:59.412Z,56.40
2023-04-17T13:28:26.104Z,58.80
2023-04-17T13:30:53.201Z,58.40
2023-04-17T13:33:20.278Z,60.20
2023-04-17T13:35:47.195Z,61.60
2023-04-17T13:38:13.886Z,67.00
2023-04-17T13:40:41.013Z,70.20
2023-04-17T13:43:07.775Z,72.60
2023-04-17T13:45:34.984Z,75.30
2023-04-17T13:48:02.061Z,75.60
2023-04-17T13:50:28.948Z,79.90
2023-04-17T13:52:55.733Z,81.40
2023-04-17T13:55:22.514Z,79.50
2023-04-17T13:57:49.440Z,83.70
2023-04-17T14:00:18.278Z,85.30
2023-04-17T14:02:46.110Z,85.10
2023-04-17T14:05:13.125Z,86.50
2023-04-17T14:07:40.229Z,85.30
2023-04-17T14:10:07.898Z,86.80
2023-04-17T14:12:34.610Z,87.80
2023-04-17T14:15:01.385Z,89.20
2023-04-17T14:17:28.797Z,90.40
2023-04-17T14:19:55.596Z,90.70
2023-04-17T14:22:22.421Z,89.90
2023-04-17T14:24:49.110Z,86.00
2023-04-17T14:27:16.513Z,86.40
2023-04-17T14:29:43.289Z,86.40
2023-04-17T14:32:10.077Z,87.70
2023-04-17T14:34:36.829Z,88.00
2023-04-17T14:37:03.730Z,88.50
2023-04-17T14:39:31.613Z,88.00
2023-04-17T14:42:01.259Z,87.00
2023-04-17T14:44:28.763Z,87.70
2023-04-17T14:46:57.012Z,86.00
2023-04-17T14:49:23.931Z,82.80
2023-04-17T14:51:50.625Z,82.10
2023-04-17T14:54:17.321Z,78.80
2023-04-17T14:56:44.072Z,76.00
2023-04-17T14:59:11.392Z,73.30
2023-04-17T15:01:38.450Z,69.90
2023-04-17T15:04:05.517Z,69.90
2023-04-17T15:06:32.440Z,72.40
2023-04-17T15:08:59.219Z,71.90
2023-04-17T15:11:25.997Z,71.50
2023-04-17T15:13:52.844Z,70.10
2023-04-17T15:16:19.838Z,70.00
2023-04-17T15:18:46.657Z,70.40
2023-04-17T15:21:15.259Z,70.90
2023-04-17T15:23:42.043Z,69.00
2023-04-17T15:26:09.186Z,67.40
2023-04-17T15:28:37.040Z,68.10
2023-04-17T15:31:03.848Z,69.30
2023-04-17T15:33:31.041Z,68.10
2023-04-17T15:35:58.689Z,67.60
2023-04-17T15:38:26.501Z,66.70
2023-04-17T15:40:53.675Z,67.30
2023-04-17T15:43:21.050Z,65.00
2023-04-17T15:45:51.922Z,65.30
2023-04-17T15:48:18.776Z,65.90
2023-04-17T15:50:46.168Z,65.40
2023-04-17T15:53:13.302Z,65.50
2023-04-17T15:55:43.003Z,65.20
2023-04-17T15:58:09.753Z,62.90
2023-04-17T16:00:36.559Z,62.70
2023-04-17T16:03:03.758Z,63.90
2023-04-17T16:05:30.720Z,65.60
2023-04-17T16:07:57.677Z,66.40
2023-04-17T16:10:24.710Z,66.90
2023-04-17T16:12:51.512Z,66.50
2023-04-17T16:15:18.469Z,67.20
2023-04-17T16:17:45.889Z,68.40
2023-04-17T16:20:13.955Z,67.90
2023-04-17T16:22:40.963Z,68.40
2023-04-17T16:25:08.206Z,67.50
2023-04-17T16:27:35.197Z,67.10
2023-04-17T16:30:03.017Z,66.30
2023-04-17T16:32:31.786Z,66.60
2023-04-17T16:34:58.872Z,66.70
2023-04-17T16:37:28.413Z,65.20
2023-04-17T16:39:55.248Z,63.30
2023-04-17T16:42:22.094Z,64.30
2023-04-17T16:44:48.847Z,65.70
2023-04-17T16:47:15.755Z,68.60
2023-04-17T16:49:42.946Z,68.40
2023-04-17T16:52:10.126Z,69.10
2023-04-17T16:54:36.983Z,67.60
2023-04-17T16:57:05.041Z,66.80
2023-04-17T16:59:32.203Z,67.00
2023-04-17T17:02:00.129Z,66.50
2023-04-17T17:04:28.882Z,67.40
2023-04-17T17:06:55.607Z,67.40
2023-04-17T17:09:22.688Z,67.40
2023-04-17T17:11:49.535Z,67.80
2023-04-17T17:14:16.447Z,67.60
2023-04-17T17:16:43.413Z,67.60
2023-04-17T17:19:10.620Z,67.80
2023-04-17T17:21:37.604Z,68.80
2023-04-17T17:24:04.642Z,69.00
2023-04-17T17:26:31.394Z,70.10
2023-04-17T17:28:58.294Z,70.40
2023-04-17T17:31:25.120Z,70.40
2023-04-17T17:33:54.008Z,70.60
2023-04-17T17:36:21.856Z,71.50
2023-04-17T17:38:55.555Z,71.20
2023-04-17T17:41:24.047Z,70.30
2023-04-17T17:43:50.881Z,70.50
2023-04-17T17:46:19.364Z,70.60
2023-04-17T17:48:46.290Z,69.80
2023-04-17T17:51:13.203Z,69.00
2023-04-17T17:53:41.137Z,68.60
2023-04-17T17:56:08.012Z,68.30
2023-04-17T17:58:34.760Z,67.60
2023-04-17T18:01:01.614Z,68.30
2023-04-17T18:03:28.563Z,68.70
2023-04-17T18:05:55.478Z,68.80
2023-04-17T18:08:22.216Z,70.00
2023-04-17T18:10:48.965Z,69.40
2023-04-17T18:13:15.765Z,70.20
2023-04-17T18:15:45.855Z,71.40
2023-04-17T18:18:12.698Z,72.70
2023-04-17T18:20:40.252Z,73.80
2023-04-17T18:23:06.988Z,74.10
2023-04-17T18:25:35.653Z,74.80
2023-04-17T18:28:03.749Z,75.30
2023-04-17T18:30:31.033Z,75.50
2023-04-17T18:33:11.679Z,76.00
2023-04-17T18:35:38.417Z,76.90
2023-04-17T18:38:05.946Z,76.80
2023-04-17T18:40:32.812Z,76.80
2023-04-17T18:42:59.586Z,76.90
2023-04-17T18:45:26.495Z,77.70
2023-04-17T18:47:53.413Z,79.00
2023-04-17T18:50:20.504Z,79.30
2023-04-17T18:52:50.926Z,80.10
2023-04-17T18:55:18.155Z,80.90
2023-04-17T18:57:44.886Z,80.70
2023-04-17T19:00:12.747Z,81.10
2023-04-17T19:02:40.749Z,81.40
2023-04-17T19:05:08.054Z,82.80
2023-04-17T19:07:34.797Z,84.90
2023-04-17T19:10:01.499Z,85.90
2023-04-17T19:12:28.272Z,87.80
2023-04-17T19:14:57.121Z,88.50
2023-04-17T19:17:25.393Z,90.10
2023-04-17T19:19:52.138Z,90.30
2023-04-17T19:22:18.898Z,90.50
2023-04-17T19:24:49.717Z,90.50
2023-04-17T19:27:17.208Z,90.70
2023-04-17T19:29:44.181Z,90.90
2023-04-17T19:32:12.178Z,90.40
2023-04-17T19:34:38.960Z,90.50
2023-04-17T19:37:05.839Z,90.30
2023-04-17T19:39:32.546Z,90.20
2023-04-17T19:41:59.438Z,90.50
2023-04-17T19:44:28.059Z,90.10
2023-04-17T19:46:55.546Z,90.10
2023-04-17T19:49:22.255Z,90.30
2023-04-17T19:51:49.018Z,90.60
2023-04-17T19:54:15.959Z,90.50
2023-04-17T19:56:42.806Z,90.60
2023-04-17T19:59:12.685Z,90.20
2023-04-17T20:01:41.523Z,90.10
2023-04-17T20:04:10.484Z,90.10
2023-04-17T20:06:37.367Z,90.20
2023-04-17T20:09:04.792Z,90.30
2023-04-17T20:11:31.589Z,90.20
2023-04-17T20:13:58.328Z,90.20
2023-04-17T20:16:25.316Z,90.30
2023-04-17T20:18:52.086Z,90.60
2023-04-17T20:21:18.873Z,90.30
2023-04-17T20:23:46.892Z,89.80
2023-04-17T20:26:14.126Z,90.30
2023-04-17T20:28:41.570Z,90.20
2023-04-17T20:31:08.468Z,90.60
2023-04-17T20:33:35.603Z,90.50
2023-04-17T20:36:03.021Z,90.50
2023-04-17T20:38:29.993Z,90.60
2023-04-17T20:40:56.712Z,90.60
2023-04-17T20:43:23.500Z,90.60
2023-04-17T20:45:50.432Z,90.40
2023-04-17T20:48:17.183Z,90.90
2023-04-17T20:50:44.087Z,90.90
2023-04-17T20:53:10.867Z,91.20
2023-04-17T20:55:38.183Z,91.10
2023-04-17T20:58:04.984Z,91.30
2023-04-17T21:00:32.480Z,91.40
2023-04-17T21:02:59.297Z,91.60
2023-04-17T21:05:26.456Z,92.00
2023-04-17T21:07:54.372Z,92.00
2023-04-17T21:10:21.168Z,91.80
2023-04-17T21:12:48.053Z,92.10
2023-04-17T21:15:14.800Z,92.20
2023-04-17T21:17:42.374Z,92.30
2023-04-17T21:20:09.924Z,92.20
2023-04-17T21:22:37.142Z,92.50
2023-04-17T21:25:04.406Z,92.70
2023-04-17T21:27:31.266Z,93.10
2023-04-17T21:29:57.932Z,93.40
2023-04-17T21:32:24.846Z,93.60
2023-04-17T21:34:51.578Z,93.90
2023-04-17T21:37:18.308Z,94.20
2023-04-17T21:39:44.976Z,94.60
2023-04-17T21:42:11.700Z,95.30
2023-04-17T21:44:38.422Z,95.40
2023-04-17T21:47:05.239Z,95.60
2023-04-17T21:49:31.919Z,96.00
2023-04-17T21:51:58.693Z,96.50
2023-04-17T21:54:27.453Z,97.00
2023-04-17T21:56:54.520Z,97.60
2023-04-17T21:59:21.220Z,98.30
2023-04-17T22:01:47.985Z,98.90
2023-04-17T22:04:14.952Z,99.50
2023-04-17T22:06:41.969Z,99.90
2023-04-17T22:09:08.819Z,99.90
2023-04-17T22:11:37.847Z,99.90
2023-04-17T22:14:04.738Z,99.90
2023-04-17T22:16:31.541Z,99.90
2023-04-17T22:18:58.441Z,99.90
2023-04-17T22:21:26.839Z,99.90
2023-04-17T22:23:53.809Z,99.90
2023-04-17T22:26:21.325Z,99.90
2023-04-17T22:28:48.181Z,99.90
2023-04-17T22:31:15.824Z,99.90
2023-04-17T22:33:43.238Z,99.90
2023-04-17T22:36:09.970Z,99.90
2023-04-17T22:38:36.851Z,99.90
2023-04-17T22:41:04.728Z,99.90
2023-04-17T22:43:31.501Z,99.90
2023-04-17T22:45:58.270Z,99.90
2023-04-17T22:48:27.927Z,99.90
2023-04-17T22:50:55.796Z,99.90
2023-04-17T22:53:24.766Z,99.90
2023-04-17T22:56:05.076Z,99.90
2023-04-17T22:58:33.907Z,99.90
2023-04-17T23:01:00.907Z,99.90
2023-04-17T23:03:28.002Z,99.90
2023-04-17T23:05:55.473Z,99.90
2023-04-17T23:08:23.541Z,99.90
2023-04-17T23:11:03.792Z,99.90
2023-04-17T23:13:31.638Z,99.90
2023-04-17T23:15:58.451Z,99.90
2023-04-17T23:18:25.312Z,99.90
2023-04-17T23:20:52.132Z,99.90
2023-04-17T23:23:18.892Z,99.90
2023-04-17T23:25:45.770Z,99.90
2023-04-17T23:28:12.595Z,99.90
2023-04-17T23:30:39.417Z,99.90
2023-04-17T23:33:06.335Z,99.90
2023-04-17T23:35:33.146Z,99.90
2023-04-17T23:37:59.879Z,99.90
2023-04-17T23:40:28.157Z,99.90
2023-04-17T23:42:55.363Z,99.90
2023-04-17T23:45:22.084Z,99.90
2023-04-17T23:47:48.904Z,99.90
2023-04-17T23:50:15.649Z,99.90
2023-04-17T23:52:42.377Z,99.90
2023-04-17T23:55:09.416Z,99.90
2023-04-17T23:57:37.850Z,99.90
